Time;durP1;ratioP1;P1;durP2;ratioP2;P2;SDS_P1;SDS_P2;PMS_P1;PMS_P2;Temp;Humidity;BMP_temperature;BMP_pressure;BME280_temperature;BME280_humidity;BME280_pressure;Samples;Min_cycle;Max_cycle;Signal;HPM_P1;HPM_P2
2021/01/22 00:01:47;;;;;;;0.45;0.35;;;3.90;99.90;;;;;;5039671;28;20095;-67
2021/01/22 00:04:13;;;;;;;0.17;0.17;;;3.90;99.90;;;;;;5037776;28;20033;-67
2021/01/22 00:06:39;;;;;;;0.00;0.00;;;3.90;99.90;;;;;;5031121;28;20387;-68
2021/01/22 00:09:05;;;;;;;0.20;0.20;;;3.90;99.90;;;;;;5032048;28;20053;-67
2021/01/22 00:11:31;;;;;;;0.20;0.20;;;3.90;99.90;;;;;;5035580;28;20063;-67
2021/01/22 00:13:57;;;;;;;0.57;0.57;;;3.90;99.90;;;;;;5037756;28;20403;-67
2021/01/22 00:16:22;;;;;;;0.10;0.10;;;3.80;99.90;;;;;;5029645;28;20061;-67
2021/01/22 00:18:48;;;;;;;0.10;0.10;;;3.80;99.90;;;;;;5029980;28;20083;-67
2021/01/22 00:21:14;;;;;;;0.20;0.20;;;3.90;99.90;;;;;;5030387;28;20489;-67
2021/01/22 00:23:39;;;;;;;0.20;0.20;;;3.90;99.90;;;;;;5027581;28;20133;-67
2021/01/22 00:26:06;;;;;;;0.40;0.40;;;3.90;99.90;;;;;;5037364;28;20029;-67
2021/01/22 00:28:32;;;;;;;0.20;0.20;;;3.90;99.90;;;;;;5033678;28;20332;-66
2021/01/22 00:30:58;;;;;;;0.37;0.37;;;3.90;99.90;;;;;;5035017;28;20037;-67
2021/01/22 00:33:23;;;;;;;0.15;0.15;;;3.90;99.90;;;;;;5030846;28;20629;-66
2021/01/22 00:35:50;;;;;;;0.45;0.43;;;3.90;99.90;;;;;;5033955;28;20038;-66
2021/01/22 00:38:16;;;;;;;0.60;0.60;;;3.90;99.90;;;;;;5036745;28;20108;-67
2021/01/22 00:40:41;;;;;;;0.10;0.10;;;3.90;99.90;;;;;;5033439;28;20108;-67
2021/01/22 00:43:07;;;;;;;2.10;0.60;;;3.90;99.90;;;;;;5033197;28;20041;-67
2021/01/22 00:45:33;;;;;;;0.20;0.20;;;3.90;99.90;;;;;;5034247;28;20036;-67
2021/01/22 00:47:58;;;;;;;0.73;0.73;;;3.90;99.90;;;;;;5032437;28;20049;-67
2021/01/22 00:50:24;;;;;;;0.30;0.30;;;3.90;99.90;;;;;;5031864;28;20038;-66
2021/01/22 00:52:51;;;;;;;0.10;0.10;;;3.90;99.90;;;;;;5029402;28;20072;-67
2021/01/22 00:55:18;;;;;;;0.17;0.17;;;3.90;99.90;;;;;;5033274;28;20029;-67
2021/01/22 00:57:44;;;;;;;0.17;0.17;;;3.90;99.90;;;;;;5035184;28;20033;-67
2021/01/22 01:00:11;;;;;;;0.43;0.43;;;3.90;99.90;;;;;;5026065;28;20030;-66
2021/01/22 01:02:37;;;;;;;;;;;3.90;99.90;;;;;;5032618;28;20028;-66
2021/01/22 01:05:06;;;;;;;0.10;0.10;;;3.90;99.90;;;;;;5027029;28;19917;-67
2021/01/22 01:07:33;;;;;;;0.20;0.20;;;3.90;99.90;;;;;;5037127;28;20102;-67
2021/01/22 01:09:58;;;;;;;0.73;0.20;;;3.90;99.90;;;;;;5036818;28;20413;-66
2021/01/22 01:12:24;;;;;;;0.10;0.10;;;4.00;99.90;;;;;;5034374;28;20044;-66
2021/01/22 01:14:50;;;;;;;0.00;0.00;;;4.00;99.90;;;;;;5033253;28;20673;-67
2021/01/22 01:17:15;;;;;;;0.40;0.40;;;4.00;99.90;;;;;;5032648;28;20372;-66
2021/01/22 01:19:41;;;;;;;0.10;0.10;;;4.00;99.90;;;;;;5035796;28;20029;-66
2021/01/22 01:22:07;;;;;;;0.00;0.00;;;4.00;99.90;;;;;;5034559;28;20151;-66
2021/01/22 01:24:32;;;;;;;0.20;0.20;;;4.00;99.90;;;;;;5035056;28;20353;-66
2021/01/22 01:26:58;;;;;;;0.35;0.35;;;4.00;99.90;;;;;;5036129;28;20033;-66
2021/01/22 01:29:24;;;;;;;0.00;0.00;;;4.00;99.90;;;;;;5037041;28;20036;-67
2021/01/22 01:31:49;;;;;;;3.33;1.00;;;4.00;99.90;;;;;;5036192;28;20033;-66
2021/01/22 01:34:15;;;;;;;0.40;0.40;;;3.90;99.90;;;;;;5030485;28;20037;-66
2021/01/22 01:36:41;;;;;;;0.10;0.10;;;4.00;99.90;;;;;;5035177;28;20047;-67
2021/01/22 01:39:06;;;;;;;0.00;0.00;;;4.00;99.90;;;;;;5032244;28;20034;-66
2021/01/22 01:41:32;;;;;;;0.07;0.07;;;4.00;99.90;;;;;;5043770;28;20029;-67
2021/01/22 01:43:58;;;;;;;0.00;0.00;;;4.00;99.90;;;;;;5035497;28;20033;-67
2021/01/22 01:46:23;;;;;;;0.00;0.00;;;3.90;99.90;;;;;;5036799;28;20383;-66
2021/01/22 01:48:49;;;;;;;4.20;0.37;;;3.90;99.90;;;;;;5031373;28;20501;-67
2021/01/22 01:51:15;;;;;;;0.28;0.20;;;3.90;99.90;;;;;;5033164;28;20056;-67
2021/01/22 01:53:41;;;;;;;0.67;0.60;;;3.90;99.90;;;;;;5034140;28;20044;-67
2021/01/22 01:56:06;;;;;;;0.00;0.00;;;3.90;99.90;;;;;;5033304;28;20025;-68
2021/01/22 01:58:32;;;;;;;10.20;0.30;;;3.90;99.90;;;;;;5031924;28;20060;-67
2021/01/22 02:00:58;;;;;;;0.43;0.10;;;3.90;99.90;;;;;;5034606;28;20025;-67
2021/01/22 02:03:24;;;;;;;0.07;0.07;;;3.90;99.90;;;;;;5020511;28;20495;-67
2021/01/22 02:05:50;;;;;;;0.03;0.03;;;3.90;99.90;;;;;;5032087;28;20033;-68
2021/01/22 02:08:17;;;;;;;0.23;0.23;;;3.90;99.90;;;;;;5022750;28;20099;-67
2021/01/22 02:10:44;;;;;;;0.10;0.10;;;3.90;99.90;;;;;;5033954;28;20037;-68
2021/01/22 02:13:11;;;;;;;1.25;0.45;;;3.90;99.90;;;;;;5032073;28;20083;-67
2021/01/22 02:15:37;;;;;;;0.10;0.10;;;3.90;99.90;;;;;;5031991;28;20037;-68
2021/01/22 02:18:05;;;;;;;0.10;0.10;;;3.90;99.90;;;;;;5035485;28;20021;-67
2021/01/22 02:20:39;;;;;;;1.02;0.68;;;3.90;99.90;;;;;;5031226;28;20478;-67
2021/01/22 02:23:05;;;;;;;0.13;0.13;;;3.90;99.90;;;;;;5031984;28;20380;-67
2021/01/22 02:25:37;;;;;;;1.50;0.57;;;3.80;99.90;;;;;;5032829;28;20036;-67
2021/01/22 02:28:11;;;;;;;0.13;0.13;;;3.80;99.90;;;;;;5030962;28;20030;-67
2021/01/22 02:30:43;;;;;;;1.92;0.45;;;3.90;99.90;;;;;;5032498;28;20332;-67
2021/01/22 02:33:11;;;;;;;0.60;0.22;;;3.80;99.90;;;;;;5031710;28;20049;-67
2021/01/22 02:35:39;;;;;;;0.10;0.10;;;3.90;99.90;;;;;;5030837;28;20079;-67
2021/01/22 02:38:06;;;;;;;0.10;0.10;;;3.90;99.90;;;;;;5032941;28;20049;-67
2021/01/22 02:40:34;;;;;;;0.60;0.60;;;3.90;99.90;;;;;;5032072;28;20444;-67
2021/01/22 02:43:02;;;;;;;1.85;1.27;;;3.90;99.90;;;;;;5027632;28;20029;-66
2021/01/22 02:45:28;;;;;;;0.47;0.47;;;3.80;99.90;;;;;;5032794;28;20029;-68
2021/01/22 02:47:54;;;;;;;0.68;0.68;;;3.80;99.90;;;;;;5030432;28;20021;-68
2021/01/22 02:50:32;;;;;;;0.80;0.77;;;3.70;99.90;;;;;;5031638;28;20036;-68
2021/01/22 02:53:02;;;;;;;0.45;0.45;;;3.70;99.90;;;;;;5034197;28;20034;-68
2021/01/22 02:55:33;;;;;;;3.75;1.95;;;3.60;99.90;;;;;;5032300;28;20026;-68
2021/01/22 02:58:17;;;;;;;0.68;0.68;;;3.60;99.90;;;;;;5029898;28;20040;-68
2021/01/22 03:00:52;;;;;;;1.38;0.88;;;3.60;99.90;;;;;;5031205;28;20332;-68
2021/01/22 03:03:40;;;;;;;2.90;1.52;;;3.60;99.90;;;;;;5031417;28;20033;-68
2021/01/22 03:06:11;;;;;;;1.27;1.17;;;3.70;99.90;;;;;;5026890;28;20034;-68
2021/01/22 03:08:38;;;;;;;0.80;0.80;;;3.70;99.90;;;;;;5021287;28;20290;-67
2021/01/22 03:11:07;;;;;;;1.80;1.20;;;3.70;99.90;;;;;;5030383;28;20163;-68
2021/01/22 03:13:33;;;;;;;0.05;0.05;;;3.70;99.90;;;;;;5034401;28;20041;-68
2021/01/22 03:16:00;;;;;;;2.17;0.68;;;3.60;99.90;;;;;;5027667;28;20030;-68
2021/01/22 03:18:25;;;;;;;;;;;3.60;99.90;;;;;;5023266;28;20022;-68
2021/01/22 03:20:51;;;;;;;0.03;0.03;;;3.70;99.90;;;;;;5033052;28;20428;-68
2021/01/22 03:23:19;;;;;;;0.00;0.00;;;3.60;99.90;;;;;;5031736;28;20113;-68
2021/01/22 03:25:45;;;;;;;0.00;0.00;;;3.60;99.90;;;;;;5034774;28;20269;-68
2021/01/22 03:28:11;;;;;;;0.00;0.00;;;3.50;99.90;;;;;;5031231;28;20074;-68
2021/01/22 03:30:37;;;;;;;0.00;0.00;;;3.60;99.90;;;;;;5034844;28;20360;-69
2021/01/22 03:33:04;;;;;;;0.00;0.00;;;3.60;99.90;;;;;;5032264;28;20051;-68
2021/01/22 03:35:30;;;;;;;0.17;0.17;;;3.60;99.90;;;;;;5029138;28;20057;-68
2021/01/22 03:37:57;;;;;;;0.20;0.20;;;3.60;99.90;;;;;;5030952;28;20064;-68
2021/01/22 03:40:23;;;;;;;;;;;3.60;99.90;;;;;;5032280;28;20029;-68
2021/01/22 03:42:49;;;;;;;0.00;0.00;;;3.60;99.90;;;;;;5043296;28;19917;-68
2021/01/22 03:45:16;;;;;;;7.83;1.37;;;3.60;99.90;;;;;;5034669;28;20037;-68
2021/01/22 03:47:42;;;;;;;3.30;0.85;;;3.60;99.90;;;;;;5032091;28;20048;-67
2021/01/22 03:50:08;;;;;;;1.33;1.13;;;3.60;99.90;;;;;;5027798;28;20052;-68
2021/01/22 03:52:33;;;;;;;0.20;0.20;;;3.50;99.90;;;;;;5033741;28;20291;-67
2021/01/22 03:54:59;;;;;;;0.10;0.10;;;3.50;99.90;;;;;;5028943;28;20072;-68
2021/01/22 03:57:25;;;;;;;0.28;0.28;;;3.50;99.90;;;;;;5029903;28;20029;-69
2021/01/22 03:59:50;;;;;;;0.40;0.40;;;3.40;99.90;;;;;;5032462;28;20036;-68
2021/01/22 04:02:17;;;;;;;0.37;0.37;;;3.40;99.90;;;;;;5025566;28;20031;-68
2021/01/22 04:04:44;;;;;;;0.10;0.10;;;3.40;99.90;;;;;;5028283;28;20029;-68
2021/01/22 04:07:11;;;;;;;0.00;0.00;;;3.40;99.90;;;;;;5031069;28;20343;-68
2021/01/22 04:09:36;;;;;;;0.03;0.03;;;3.40;99.90;;;;;;5027698;28;20072;-68
2021/01/22 04:12:02;;;;;;;0.20;0.20;;;3.50;99.90;;;;;;5031573;28;20037;-69
2021/01/22 04:14:28;;;;;;;0.43;0.40;;;3.50;99.90;;;;;;5040065;28;20483;-68
2021/01/22 04:16:55;;;;;;;0.13;0.13;;;3.60;99.90;;;;;;5019884;28;20029;-68
2021/01/22 04:19:21;;;;;;;0.13;0.05;;;3.60;99.90;;;;;;5031930;28;20025;-68
2021/01/22 04:21:47;;;;;;;0.30;0.30;;;3.60;99.90;;;;;;5020025;28;20067;-68
2021/01/22 04:24:12;;;;;;;0.63;0.27;;;3.60;99.90;;;;;;5031513;28;20037;-68
2021/01/22 04:26:40;;;;;;;0.40;0.40;;;3.60;99.90;;;;;;5031509;28;20404;-69
2021/01/22 04:29:07;;;;;;;0.25;0.25;;;3.60;99.90;;;;;;5032627;28;20018;-68
2021/01/22 04:31:32;;;;;;;0.15;0.15;;;3.50;99.90;;;;;;5028059;28;20104;-69
2021/01/22 04:33:58;;;;;;;0.40;0.40;;;3.50;99.90;;;;;;5029485;28;20108;-68
2021/01/22 04:36:24;;;;;;;0.10;0.10;;;3.50;99.90;;;;;;5032026;28;20033;-68
2021/01/22 04:38:49;;;;;;;0.03;0.03;;;3.50;99.90;;;;;;5040439;28;20328;-68
2021/01/22 04:41:15;;;;;;;0.40;0.40;;;3.50;99.90;;;;;;5029249;28;20033;-68
2021/01/22 04:43:44;;;;;;;0.10;0.10;;;3.50;99.90;;;;;;5029549;28;20033;-68
2021/01/22 04:46:11;;;;;;;0.00;0.00;;;3.50;99.90;;;;;;5027448;28;20039;-67
2021/01/22 04:48:38;;;;;;;0.32;0.32;;;3.50;99.90;;;;;;5030154;28;20436;-68
2021/01/22 04:51:05;;;;;;;0.10;0.10;;;3.40;99.90;;;;;;5030752;28;20163;-68
2021/01/22 04:53:33;;;;;;;0.10;0.10;;;3.50;99.90;;;;;;5032934;28;20041;-68
2021/01/22 04:56:00;;;;;;;0.98;0.30;;;3.50;99.90;;;;;;5030863;28;20332;-68
2021/01/22 04:58:28;;;;;;;5.15;1.15;;;3.40;99.90;;;;;;5030713;28;20033;-68
2021/01/22 05:00:55;;;;;;;1.00;1.00;;;3.40;99.90;;;;;;5032457;28;20316;-69
2021/01/22 05:03:26;;;;;;;;;;;3.40;99.90;;;;;;5028567;28;20037;-67
2021/01/22 05:05:53;;;;;;;0.30;0.30;;;3.30;99.90;;;;;;5034793;28;19909;-68
2021/01/22 05:08:19;;;;;;;0.10;0.10;;;3.30;99.90;;;;;;5031305;28;20600;-68
2021/01/22 05:10:45;;;;;;;1.08;0.77;;;3.30;99.90;;;;;;5029733;28;20083;-68
2021/01/22 05:13:10;;;;;;;0.03;0.03;;;3.30;99.90;;;;;;5031340;28;20033;-68
2021/01/22 05:15:36;;;;;;;0.27;0.17;;;3.30;99.90;;;;;;5028013;28;20041;-68
2021/01/22 05:18:04;;;;;;;0.93;0.50;;;3.30;99.90;;;;;;5027311;28;20040;-67
2021/01/22 05:20:42;;;;;;;0.17;0.17;;;3.30;99.90;;;;;;5022383;28;20029;-68
2021/01/22 05:23:10;;;;;;;0.20;0.20;;;3.40;99.90;;;;;;5025178;28;20029;-68
2021/01/22 05:26:00;;;;;;;0.88;0.25;;;3.40;99.90;;;;;;5036292;28;20740;-68
2021/01/22 05:28:46;;;;;;;1.23;0.32;;;3.40;99.90;;;;;;5035190;28;20032;-68
2021/01/22 05:31:14;;;;;;;0.20;0.20;;;3.40;99.90;;;;;;5029089;28;20317;-68
2021/01/22 05:33:41;;;;;;;0.15;0.15;;;3.40;99.90;;;;;;5031173;28;20036;-67
2021/01/22 05:36:22;;;;;;;0.10;0.10;;;3.40;99.90;;;;;;5030698;28;20152;-68
2021/01/22 05:38:49;;;;;;;0.32;0.30;;;3.40;99.90;;;;;;5029536;28;20017;-67
2021/01/22 05:41:15;;;;;;;0.13;0.13;;;3.40;99.90;;;;;;5028899;28;20328;-68
2021/01/22 05:43:41;;;;;;;0.20;0.20;;;3.40;99.90;;;;;;5032292;28;20034;-69
2021/01/22 05:46:15;;;;;;;0.37;0.30;;;3.40;99.90;;;;;;5031863;28;20131;-67
2021/01/22 05:48:42;;;;;;;0.30;0.30;;;3.40;99.90;;;;;;5027451;28;20069;-68
2021/01/22 05:51:07;;;;;;;;;;;3.40;99.90;;;;;;5031966;28;20428;-68
2021/01/22 05:53:42;;;;;;;0.32;0.32;;;3.30;99.90;;;;;;5035275;28;19975;-68
2021/01/22 05:56:17;;;;;;;0.08;0.08;;;3.30;99.90;;;;;;5036373;28;20040;-67
2021/01/22 05:58:44;;;;;;;0.15;0.15;;;3.20;99.90;;;;;;5034254;28;20289;-67
2021/01/22 06:01:12;;;;;;;2.08;0.35;;;3.10;99.90;;;;;;5030875;28;20087;-68
2021/01/22 06:03:40;;;;;;;0.88;0.88;;;3.00;99.90;;;;;;5034580;28;21458;-68
2021/01/22 06:06:07;;;;;;;0.00;0.00;;;2.90;99.90;;;;;;5034415;28;20435;-67
2021/01/22 06:08:33;;;;;;;;;;;2.90;99.90;;;;;;5033271;28;20038;-68
2021/01/22 06:11:00;;;;;;;4.32;0.40;;;2.80;99.90;;;;;;5035422;28;19916;-68
2021/01/22 06:13:28;;;;;;;0.30;0.30;;;2.80;99.90;;;;;;5033728;28;20151;-68
2021/01/22 06:15:58;;;;;;;0.63;0.45;;;2.80;99.90;;;;;;5033720;28;20029;-68
2021/01/22 06:18:30;;;;;;;0.30;0.30;;;2.80;99.90;;;;;;5027471;28;20025;-68
2021/01/22 06:21:14;;;;;;;0.10;0.10;;;2.80;99.90;;;;;;5034434;28;20033;-68
2021/01/22 06:23:40;;;;;;;0.40;0.40;;;2.70;99.90;;;;;;5025142;28;20029;-67
2021/01/22 06:26:06;;;;;;;0.60;0.60;;;2.70;99.90;;;;;;5032168;28;20559;-67
2021/01/22 06:28:33;;;;;;;0.20;0.20;;;2.70;99.90;;;;;;5035376;28;20135;-67
2021/01/22 06:30:59;;;;;;;7.28;1.55;;;2.60;99.90;;;;;;5024536;28;20034;-68
2021/01/22 06:33:26;;;;;;;0.10;0.10;;;2.60;99.90;;;;;;5036222;28;20028;-68
2021/01/22 06:35:53;;;;;;;0.10;0.10;;;2.60;99.90;;;;;;5030313;28;20073;-68
2021/01/22 06:38:21;;;;;;;;;;;2.50;99.90;;;;;;5033988;28;20029;-68
2021/01/22 06:40:49;;;;;;;0.10;0.10;;;2.50;99.90;;;;;;5033236;28;19917;-68
2021/01/22 06:43:14;;;;;;;6.88;0.75;;;2.50;99.90;;;;;;5033278;28;20059;-67
2021/01/22 06:45:40;;;;;;;3.67;1.13;;;2.50;99.90;;;;;;5033953;28;20104;-68
2021/01/22 06:48:07;;;;;;;1.70;1.00;;;2.50;99.90;;;;;;5035776;28;20440;-68
2021/01/22 06:50:35;;;;;;;0.93;0.93;;;2.40;99.90;;;;;;5031010;28;20033;-68
2021/01/22 06:53:04;;;;;;;0.45;0.45;;;2.40;99.90;;;;;;5033403;28;20026;-68
2021/01/22 06:55:30;;;;;;;0.90;0.90;;;2.40;99.90;;;;;;5033793;28;20045;-68
2021/01/22 06:58:27;;;;;;;0.43;0.43;;;2.50;99.90;;;;;;5035859;28;20060;-68
2021/01/22 07:00:54;;;;;;;0.30;0.30;;;2.50;99.90;;;;;;5034139;28;20033;-68
2021/01/22 07:03:38;;;;;;;0.55;0.55;;;2.50;99.90;;;;;;5031120;28;20036;-68
2021/01/22 07:06:05;;;;;;;0.57;0.57;;;2.60;99.90;;;;;;5030714;28;20045;-67
2021/01/22 07:08:49;;;;;;;1.63;1.52;;;2.70;99.90;;;;;;5033509;28;20052;-68
2021/01/22 07:11:16;;;;;;;4.97;1.95;;;2.70;99.90;;;;;;5040216;28;20064;-67
2021/01/22 07:13:46;;;;;;;1.35;0.93;;;2.70;99.90;;;;;;5030022;28;20361;-68
2021/01/22 07:16:18;;;;;;;1.73;1.05;;;2.70;99.90;;;;;;5032610;28;20427;-68
2021/01/22 07:18:56;;;;;;;5.25;1.27;;;2.80;99.90;;;;;;5032534;28;20028;-68
2021/01/22 07:21:37;;;;;;;0.90;0.90;;;2.80;99.90;;;;;;5031380;28;20058;-69
2021/01/22 07:24:15;;;;;;;0.60;0.60;;;2.70;99.90;;;;;;5029237;28;20031;-68
2021/01/22 07:26:41;;;;;;;0.77;0.77;;;2.70;99.90;;;;;;5036450;28;20065;-68
2021/01/22 07:29:20;;;;;;;3.95;0.70;;;2.70;99.90;;;;;;5032329;28;20247;-67
2021/01/22 07:31:53;;;;;;;1.02;1.02;;;2.70;99.90;;;;;;5020591;28;20425;-68
2021/01/22 07:34:37;;;;;;;1.60;0.65;;;2.60;99.90;;;;;;5036817;28;20028;-68
2021/01/22 07:37:07;;;;;;;0.75;0.75;;;2.60;99.90;;;;;;5045918;28;20036;-68
2021/01/22 07:39:34;;;;;;;1.27;0.88;;;2.60;99.90;;;;;;5024940;28;20481;-68
2021/01/22 07:42:16;;;;;;;2.92;0.60;;;2.60;99.90;;;;;;5032911;28;20029;-68
2021/01/22 07:44:47;;;;;;;2.33;1.20;;;2.70;99.90;;;;;;5039488;28;20455;-71
2021/01/22 07:47:27;;;;;;;0.30;0.30;;;2.60;99.90;;;;;;5032412;28;20102;-68
2021/01/22 07:49:59;;;;;;;2.25;0.88;;;2.70;99.90;;;;;;5029542;28;20057;-68
2021/01/22 07:52:25;;;;;;;10.25;1.88;;;2.60;99.90;;;;;;5033585;28;20037;-68
2021/01/22 07:54:51;;;;;;;0.73;0.73;;;2.70;99.90;;;;;;5035189;28;20032;-68
2021/01/22 07:57:25;;;;;;;13.32;0.80;;;2.70;99.90;;;;;;5032606;28;20451;-68
2021/01/22 07:59:52;;;;;;;0.68;0.68;;;2.60;99.90;;;;;;5033125;28;20408;-68
2021/01/22 08:02:23;;;;;;;2.30;1.27;;;2.60;99.90;;;;;;5034483;28;20032;-68
2021/01/22 08:05:00;;;;;;;0.88;0.88;;;2.60;99.90;;;;;;5028127;28;20037;-67
2021/01/22 08:07:38;;;;;;;3.83;1.20;;;2.60;99.90;;;;;;5031707;28;20083;-67
2021/01/22 08:10:07;;;;;;;20.63;1.08;;;2.60;99.90;;;;;;5029613;28;20300;-68
2021/01/22 08:12:34;;;;;;;0.88;0.55;;;2.60;99.90;;;;;;5030083;28;20053;-69
2021/01/22 08:15:13;;;;;;;1.13;0.60;;;2.60;99.90;;;;;;5028173;28;20029;-67
2021/01/22 08:17:38;;;;;;;0.60;0.47;;;2.60;99.90;;;;;;5032909;28;20025;-68
2021/01/22 08:20:08;;;;;;;0.50;0.50;;;2.60;99.90;;;;;;5033219;28;20112;-68
2021/01/22 08:22:34;;;;;;;0.98;0.90;;;2.60;99.90;;;;;;5031320;28;20035;-68
2021/01/22 08:25:00;;;;;;;1.50;1.17;;;2.60;99.90;;;;;;5033265;28;20320;-68
2021/01/22 08:27:26;;;;;;;0.77;0.77;;;2.50;99.90;;;;;;5030841;28;20087;-68
2021/01/22 08:29:52;;;;;;;0.30;0.30;;;2.60;99.90;;;;;;5030699;28;20037;-68
2021/01/22 08:32:18;;;;;;;1.47;0.63;;;2.60;99.90;;;;;;5030940;28;20117;-67
2021/01/22 08:34:45;;;;;;;0.85;0.85;;;2.60;99.90;;;;;;5034090;28;20025;-68
2021/01/22 08:37:11;;;;;;;0.40;0.40;;;2.60;99.90;;;;;;5029625;28;20338;-68
2021/01/22 08:39:55;;;;;;;1.77;1.17;;;2.60;99.90;;;;;;5019858;28;20026;-68
2021/01/22 08:42:21;;;;;;;0.35;0.35;;;2.60;99.90;;;;;;5028575;28;20684;-67
2021/01/22 08:45:04;;;;;;;0.85;0.82;;;2.60;99.90;;;;;;5021739;28;20421;-67
2021/01/22 08:47:31;;;;;;;0.82;0.80;;;2.60;99.90;;;;;;5030832;28;20072;-68
2021/01/22 08:50:02;;;;;;;6.68;1.55;;;2.70;99.90;;;;;;5030751;28;20060;-68
2021/01/22 08:52:29;;;;;;;1.52;0.98;;;2.80;99.90;;;;;;5031396;28;20029;-68
2021/01/22 08:54:59;;;;;;;0.32;0.32;;;2.80;99.90;;;;;;5029896;28;20034;-68
2021/01/22 08:57:27;;;;;;;3.20;0.80;;;2.90;99.90;;;;;;5030604;28;20087;-67
2021/01/22 08:59:55;;;;;;;2.65;1.67;;;2.90;99.90;;;;;;5032366;28;20097;-68
2021/01/22 09:02:41;;;;;;;1.00;0.50;;;2.90;99.90;;;;;;5030460;28;20332;-68
2021/01/22 09:05:16;;;;;;;3.40;0.45;;;2.80;99.90;;;;;;5026009;28;20037;-68
2021/01/22 09:07:42;;;;;;;1.58;1.40;;;2.80;99.90;;;;;;5031708;28;20105;-68
2021/01/22 09:10:29;;;;;;;1.40;1.40;;;2.70;99.90;;;;;;5031516;28;20042;-67
2021/01/22 09:13:16;;;;;;;0.57;0.57;;;2.70;99.90;;;;;;5030094;28;20494;-68
2021/01/22 09:15:42;;;;;;;0.63;0.63;;;2.70;99.90;;;;;;5031229;28;20079;-68
2021/01/22 09:18:22;;;;;;;0.60;0.60;;;2.70;99.90;;;;;;5043496;28;20100;-68
2021/01/22 09:21:02;;;;;;;3.13;1.92;;;2.70;99.90;;;;;;5031448;28;20034;-69
2021/01/22 09:23:28;;;;;;;1.85;1.35;;;2.80;99.90;;;;;;5032184;28;20030;-68
2021/01/22 09:25:56;;;;;;;3.90;1.48;;;2.80;99.90;;;;;;5033552;28;20026;-68
2021/01/22 09:28:22;;;;;;;1.20;1.10;;;2.90;99.90;;;;;;5029884;28;20030;-68
2021/01/22 09:30:47;;;;;;;1.10;1.00;;;2.90;99.90;;;;;;5033008;28;20042;-68
2021/01/22 09:33:14;;;;;;;0.73;0.73;;;2.90;99.90;;;;;;5034306;28;20033;-68
2021/01/22 09:35:40;;;;;;;0.50;0.50;;;3.00;99.90;;;;;;5035799;28;20030;-68
2021/01/22 09:38:06;;;;;;;1.37;1.27;;;3.00;99.90;;;;;;5033271;28;20053;-67
2021/01/22 09:40:32;;;;;;;4.30;1.47;;;3.10;99.90;;;;;;5035708;28;20029;-68
2021/01/22 09:42:58;;;;;;;1.53;1.43;;;3.20;99.90;;;;;;5024109;28;20386;-68
2021/01/22 09:45:24;;;;;;;0.43;0.30;;;3.30;99.90;;;;;;5031707;28;20351;-69
2021/01/22 09:47:50;;;;;;;1.73;0.73;;;3.40;99.90;;;;;;5035720;28;20021;-69
2021/01/22 09:50:17;;;;;;;0.30;0.30;;;3.50;99.90;;;;;;5034232;28;20289;-68
2021/01/22 09:52:43;;;;;;;0.47;0.47;;;3.60;99.90;;;;;;5022039;28;20029;-68
2021/01/22 09:55:12;;;;;;;0.45;0.45;;;3.60;99.90;;;;;;5024673;28;20026;-68
2021/01/22 09:57:38;;;;;;;1.13;0.98;;;3.70;99.90;;;;;;5046866;28;20040;-68
2021/01/22 10:00:06;;;;;;;1.25;0.77;;;3.70;99.90;;;;;;5035166;28;20316;-68
2021/01/22 10:02:32;;;;;;;0.20;0.20;;;3.80;99.90;;;;;;5033509;28;20107;-68
2021/01/22 10:04:57;;;;;;;3.87;1.27;;;3.90;99.90;;;;;;5031987;28;20028;-68
2021/01/22 10:07:23;;;;;;;0.07;0.07;;;3.90;99.90;;;;;;5033823;28;20424;-69
2021/01/22 10:09:49;;;;;;;0.60;0.60;;;4.00;99.90;;;;;;5036527;28;20036;-68
2021/01/22 10:12:14;;;;;;;16.23;3.20;;;4.00;99.90;;;;;;5031926;28;20033;-68
2021/01/22 10:14:41;;;;;;;0.73;0.70;;;4.10;99.90;;;;;;5035484;28;20036;-69
2021/01/22 10:17:07;;;;;;;1.70;0.80;;;4.20;99.90;;;;;;5033373;28;20029;-68
2021/01/22 10:19:32;;;;;;;0.43;0.43;;;4.20;99.90;;;;;;5041059;28;20025;-68
2021/01/22 10:21:58;;;;;;;0.80;0.80;;;4.30;99.90;;;;;;5038579;28;20687;-68
2021/01/22 10:24:32;;;;;;;1.23;1.13;;;4.40;99.90;;;;;;5036068;28;20033;-68
2021/01/22 10:26:58;;;;;;;0.10;0.10;;;4.60;99.90;;;;;;5047167;28;20040;-68
2021/01/22 10:29:24;;;;;;;0.17;0.17;;;4.70;99.90;;;;;;5034395;28;20021;-68
2021/01/22 10:31:49;;;;;;;0.67;0.67;;;4.80;99.90;;;;;;5041331;28;20037;-68
2021/01/22 10:34:16;;;;;;;1.00;1.00;;;4.90;99.90;;;;;;5041282;28;20026;-69
2021/01/22 10:36:42;;;;;;;0.88;0.88;;;5.00;99.90;;;;;;5031997;28;20033;-69
2021/01/22 10:39:08;;;;;;;0.52;0.52;;;5.10;99.90;;;;;;5031296;28;20038;-69
2021/01/22 10:41:33;;;;;;;6.38;1.35;;;5.10;99.90;;;;;;5033671;28;20293;-69
2021/01/22 10:43:59;;;;;;;1.10;1.10;;;5.30;99.90;;;;;;5036496;28;20068;-69
2021/01/22 10:46:25;;;;;;;1.48;1.38;;;5.40;99.90;;;;;;5030115;28;20045;-69
2021/01/22 10:48:51;;;;;;;1.17;1.08;;;5.40;99.90;;;;;;5041631;28;20056;-68
2021/01/22 10:51:17;;;;;;;1.73;0.60;;;5.40;99.90;;;;;;5037025;28;20103;-69
2021/01/22 10:53:42;;;;;;;0.30;0.30;;;5.50;99.90;;;;;;5031460;28;20041;-69
2021/01/22 10:56:08;;;;;;;29.57;1.37;;;5.70;99.90;;;;;;5043109;28;20029;-69
2021/01/22 10:58:34;;;;;;;0.57;0.57;;;5.70;99.90;;;;;;5049011;28;20106;-69
2021/01/22 11:01:00;;;;;;;2.87;0.67;;;5.70;99.90;;;;;;5049276;28;20029;-69
2021/01/22 11:03:30;;;;;;;0.30;0.30;;;5.80;99.90;;;;;;5049674;28;20318;-69
2021/01/22 11:05:56;;;;;;;0.60;0.60;;;6.00;99.90;;;;;;5044615;28;20029;-69
2021/01/22 11:08:22;;;;;;;3.10;1.63;;;6.10;99.90;;;;;;5041141;28;20127;-68
2021/01/22 11:10:48;;;;;;;9.50;0.63;;;6.10;99.90;;;;;;5041647;28;20091;-68
2021/01/22 11:13:13;;;;;;;0.67;0.57;;;6.10;99.90;;;;;;5047985;28;20025;-69
2021/01/22 11:15:39;;;;;;;0.93;0.82;;;6.10;99.90;;;;;;5042915;28;20109;-68
2021/01/22 11:18:05;;;;;;;8.45;2.00;;;6.00;99.90;;;;;;5015821;28;20049;-69
2021/01/22 11:20:30;;;;;;;2.75;0.47;;;6.10;99.90;;;;;;5033313;28;20029;-70
2021/01/22 11:22:56;;;;;;;1.10;0.93;;;6.10;99.90;;;;;;5031016;28;20036;-69
2021/01/22 11:25:22;;;;;;;5.20;1.02;;;6.10;99.90;;;;;;5031355;28;20040;-69
2021/01/22 11:27:49;;;;;;;1.45;1.35;;;6.00;99.90;;;;;;5046323;28;20135;-68
2021/01/22 11:30:15;;;;;;;0.08;0.08;;;5.90;99.90;;;;;;5032722;28;20079;-70
2021/01/22 11:32:41;;;;;;;0.38;0.38;;;5.90;99.90;;;;;;5031270;28;20105;-69
2021/01/22 11:35:09;;;;;;;1.50;0.73;;;5.80;99.90;;;;;;5033723;28;20475;-68
2021/01/22 11:37:39;;;;;;;1.55;1.17;;;5.80;99.90;;;;;;5033569;28;20018;-68
2021/01/22 11:40:07;;;;;;;1.45;1.05;;;5.80;99.90;;;;;;5029537;28;20018;-70
2021/01/22 11:42:33;;;;;;;0.45;0.45;;;6.00;99.90;;;;;;5028292;28;20034;-69
2021/01/22 11:44:59;;;;;;;0.22;0.22;;;6.10;99.90;;;;;;5029138;28;20033;-70
2021/01/22 11:47:24;;;;;;;0.65;0.65;;;6.20;99.90;;;;;;5031359;28;20025;-69
2021/01/22 11:49:50;;;;;;;0.77;0.75;;;6.30;99.90;;;;;;5037833;28;20053;-68
2021/01/22 11:52:16;;;;;;;0.82;0.68;;;6.40;99.90;;;;;;5038420;28;20047;-68
2021/01/22 11:54:42;;;;;;;1.08;0.73;;;6.50;99.90;;;;;;5037588;28;20040;-69
2021/01/22 11:57:08;;;;;;;0.25;0.22;;;6.50;99.90;;;;;;5034414;28;20056;-69
2021/01/22 11:59:34;;;;;;;1.47;0.73;;;6.60;99.90;;;;;;5035038;28;20060;-69
2021/01/22 12:02:00;;;;;;;0.57;0.57;;;6.50;99.90;;;;;;5030548;28;20026;-69
2021/01/22 12:04:26;;;;;;;1.05;0.75;;;6.40;99.90;;;;;;5032309;28;20507;-69
2021/01/22 12:06:52;;;;;;;3.55;1.20;;;6.50;99.90;;;;;;5031055;28;20037;-68
2021/01/22 12:09:18;;;;;;;1.55;0.70;;;6.60;99.90;;;;;;5032709;28;20034;-68
2021/01/22 12:11:43;;;;;;;0.13;0.13;;;6.50;99.90;;;;;;5033197;28;20037;-68
2021/01/22 12:14:09;;;;;;;7.90;0.90;;;6.70;99.90;;;;;;5032157;28;20492;-68
2021/01/22 12:16:35;;;;;;;2.10;1.33;;;6.90;99.90;;;;;;5033730;28;20022;-69
2021/01/22 12:19:01;;;;;;;0.40;0.40;;;7.00;99.90;;;;;;5018781;28;20063;-69
2021/01/22 12:21:27;;;;;;;18.80;1.43;;;7.00;99.90;;;;;;5019606;28;20029;-69
2021/01/22 12:23:52;;;;;;;1.23;0.93;;;6.90;99.90;;;;;;5030419;28;20026;-68
2021/01/22 12:26:18;;;;;;;0.75;0.75;;;6.80;99.90;;;;;;5034150;28;20029;-69
2021/01/22 12:28:44;;;;;;;0.90;0.65;;;6.70;99.90;;;;;;5037306;28;20619;-68
2021/01/22 12:31:10;;;;;;;0.40;0.40;;;6.70;99.90;;;;;;5037564;28;20033;-69
2021/01/22 12:33:36;;;;;;;0.10;0.10;;;6.70;99.90;;;;;;5034848;28;20033;-69
2021/01/22 12:36:04;;;;;;;0.37;0.37;;;6.60;99.90;;;;;;5036182;28;20037;-68
2021/01/22 12:38:30;;;;;;;1.55;1.00;;;6.60;99.90;;;;;;5034373;28;20442;-69
2021/01/22 12:40:56;;;;;;;0.37;0.33;;;6.50;99.90;;;;;;5031914;28;20026;-69
2021/01/22 12:43:22;;;;;;;0.20;0.20;;;6.40;99.90;;;;;;5035034;28;20057;-68
2021/01/22 12:45:48;;;;;;;14.85;0.77;;;6.30;99.90;;;;;;5033891;28;20029;-69
2021/01/22 12:48:14;;;;;;;0.10;0.10;;;6.20;99.90;;;;;;5033621;28;20037;-69
2021/01/22 12:50:41;;;;;;;5.00;0.70;;;6.30;99.90;;;;;;5031614;28;20021;-69
2021/01/22 12:53:06;;;;;;;;;;;6.30;99.90;;;;;;5032653;28;20090;-69
2021/01/22 12:55:32;;;;;;;0.20;0.20;;;6.30;99.90;;;;;;5033108;28;19917;-69
2021/01/22 12:57:58;;;;;;;0.50;0.50;;;6.20;99.90;;;;;;5031198;28;20033;-69
2021/01/22 13:00:24;;;;;;;0.20;0.20;;;6.20;99.90;;;;;;5031960;28;20409;-69
2021/01/22 13:02:49;;;;;;;4.32;1.50;;;6.20;99.90;;;;;;5033342;28;20432;-68